Time;durP1;ratioP1;P1;durP2;ratioP2;P2;SDS_P1;SDS_P2;PMS_P1;PMS_P2;Temp;Humidity;BMP_temperature;BMP_pressure;BME280_temperature;BME280_humidity;BME280_pressure;Samples;Min_cycle;Max_cycle;Signal;HPM_P1;HPM_P2
2023/05/08 00:00:43;;;;;;;81.40;25.17;;;16.70;99.90;;;;;;4958317;28;20178;-87
2023/05/08 00:03:09;;;;;;;83.53;26.37;;;16.80;99.90;;;;;;4958308;28;20465;-87
2023/05/08 00:05:35;;;;;;;83.23;31.43;;;16.70;99.90;;;;;;4975529;28;20405;-87
2023/05/08 00:08:01;;;;;;;84.50;33.80;;;16.60;99.90;;;;;;4958249;28;20769;-87
2023/05/08 00:10:28;;;;;;;89.90;30.70;;;16.60;99.90;;;;;;4975052;28;20504;-87
2023/05/08 00:12:54;;;;;;;83.90;29.80;;;16.50;99.90;;;;;;4975184;28;20193;-87
2023/05/08 00:15:20;;;;;;;83.67;30.43;;;16.50;99.90;;;;;;4974919;28;20410;-87
2023/05/08 00:17:46;;;;;;;80.77;27.70;;;16.60;99.90;;;;;;4974961;28;20438;-88
2023/05/08 00:20:12;;;;;;;81.80;30.80;;;16.60;99.90;;;;;;4975109;28;20657;-88
2023/05/08 00:22:37;;;;;;;81.80;31.80;;;16.50;99.90;;;;;;4975135;28;20721;-87
2023/05/08 00:25:04;;;;;;;83.93;29.93;;;16.40;99.90;;;;;;4957722;28;20506;-87
2023/05/08 00:27:31;;;;;;;83.50;32.70;;;16.30;99.90;;;;;;4957686;28;20270;-88
2023/05/08 00:29:57;;;;;;;87.27;32.30;;;16.30;99.90;;;;;;4975237;28;20771;-88
2023/05/08 00:32:25;;;;;;;82.50;31.50;;;16.40;99.90;;;;;;4957450;28;20822;-88
2023/05/08 00:34:51;;;;;;;82.47;30.97;;;16.40;99.90;;;;;;4957707;28;20975;-88
2023/05/08 00:37:17;;;;;;;82.27;29.50;;;16.40;99.90;;;;;;4957537;28;20429;-88
2023/05/08 00:39:45;;;;;;;83.00;33.13;;;16.40;99.90;;;;;;4975178;28;20191;-88
2023/05/08 00:42:11;;;;;;;81.80;28.77;;;16.30;99.90;;;;;;4957305;28;20167;-88
2023/05/08 00:44:38;;;;;;;83.10;29.73;;;16.40;99.90;;;;;;4975093;28;20503;-88
2023/05/08 00:47:05;;;;;;;81.00;29.60;;;16.40;99.90;;;;;;4974596;28;20189;-88
2023/05/08 00:49:33;;;;;;;80.57;31.73;;;16.40;99.90;;;;;;4974814;28;20417;-88
2023/05/08 00:51:59;;;;;;;79.70;30.83;;;16.40;99.90;;;;;;4974532;28;20414;-88
2023/05/08 00:54:28;;;;;;;76.73;26.87;;;16.30;99.90;;;;;;4974877;28;20408;-88
2023/05/08 00:56:57;;;;;;;78.80;27.00;;;16.30;99.90;;;;;;4957493;28;20809;-88
2023/05/08 00:59:24;;;;;;;80.17;30.07;;;16.30;99.90;;;;;;4974844;28;20414;-88
2023/05/08 01:01:51;;;;;;;79.13;26.60;;;16.30;99.90;;;;;;4957239;28;20462;-88
2023/05/08 01:04:20;;;;;;;76.13;27.47;;;16.30;99.90;;;;;;4974789;28;20966;-88
2023/05/08 01:06:46;;;;;;;74.87;25.40;;;16.30;99.90;;;;;;4961665;28;20929;-88
2023/05/08 01:09:11;;;;;;;80.07;29.40;;;16.30;99.90;;;;;;4978889;28;20504;-88
2023/05/08 01:12:09;;;;;;;80.07;32.07;;;16.20;99.90;;;;;;4978756;28;20205;-88
2023/05/08 01:15:05;;;;;;;75.10;26.00;;;16.20;99.90;;;;;;4975389;28;20652;-88
2023/05/08 01:17:40;;;;;;;74.57;24.53;;;16.20;99.90;;;;;;4978331;28;20423;-88
2023/05/08 01:20:25;;;;;;;80.10;25.80;;;16.20;99.90;;;;;;4960846;28;20757;-88
2023/05/08 01:23:13;;;;;;;77.30;23.30;;;16.20;99.90;;;;;;4961805;28;20994;-88
2023/05/08 01:26:23;;;;;;;74.77;23.57;;;16.10;99.90;;;;;;4978366;28;20967;-88
2023/05/08 01:28:52;;;;;;;74.40;21.63;;;16.20;99.90;;;;;;4945489;28;20462;-88
2023/05/08 01:31:51;;;;;;;74.60;25.37;;;16.10;99.90;;;;;;4961611;28;20410;-88
2023/05/08 01:34:24;;;;;;;73.80;22.57;;;16.10;99.90;;;;;;4978165;28;20748;-88
2023/05/08 01:37:15;;;;;;;72.70;22.20;;;16.00;99.90;;;;;;4978288;28;20419;-88
2023/05/08 01:39:56;;;;;;;74.77;22.70;;;16.10;99.90;;;;;;4960437;28;20403;-88
2023/05/08 01:42:28;;;;;;;75.00;23.07;;;16.10;99.90;;;;;;4978243;28;20384;-88
2023/05/08 01:45:02;;;;;;;74.40;25.77;;;16.10;99.90;;;;;;4960128;28;20494;-88
2023/05/08 01:47:32;;;;;;;72.23;21.20;;;16.10;99.90;;;;;;4977443;28;20840;-88
2023/05/08 01:50:33;;;;;;;74.53;21.07;;;16.10;99.90;;;;;;4960413;28;20897;-88
2023/05/08 01:53:12;;;;;;;71.40;17.87;;;16.20;99.90;;;;;;4950436;28;20413;-88
2023/05/08 01:55:42;;;;;;;73.50;20.67;;;16.10;99.90;;;;;;4977523;28;20424;-88
2023/05/08 01:58:12;;;;;;;75.10;23.57;;;16.10;99.90;;;;;;4977446;28;20418;-88
2023/05/08 02:00:46;;;;;;;74.00;23.37;;;16.00;99.90;;;;;;4959912;28;20417;-88
2023/05/08 02:03:15;;;;;;;77.70;23.47;;;16.00;99.90;;;;;;4959981;28;20530;-88
2023/05/08 02:05:42;;;;;;;75.20;24.50;;;16.10;99.90;;;;;;4977322;28;20425;-88
2023/05/08 02:08:11;;;;;;;79.10;25.70;;;16.10;99.90;;;;;;4977478;28;20417;-88
2023/05/08 02:10:38;;;;;;;75.40;25.23;;;16.10;99.90;;;;;;4977079;28;20401;-88
2023/05/08 02:13:07;;;;;;;74.60;23.43;;;16.10;99.90;;;;;;4977055;28;20409;-88
2023/05/08 02:15:35;;;;;;;77.70;25.60;;;16.10;99.90;;;;;;4959478;28;20419;-88
2023/05/08 02:18:07;;;;;;;75.13;22.97;;;16.00;99.90;;;;;;4960081;28;20418;-88
2023/05/08 02:20:33;;;;;;;78.27;24.67;;;16.10;99.90;;;;;;4960017;28;20440;-88
2023/05/08 02:23:01;;;;;;;78.40;26.63;;;16.00;99.90;;;;;;4960160;28;20457;-88
2023/05/08 02:25:29;;;;;;;74.60;24.77;;;16.00;99.90;;;;;;4976668;28;20411;-88
2023/05/08 02:27:58;;;;;;;77.27;26.07;;;15.90;99.90;;;;;;4959205;28;20413;-88
2023/05/08 02:30:51;;;;;;;79.17;29.80;;;15.90;99.90;;;;;;4959690;28;20417;-87
2023/05/08 02:33:20;;;;;;;74.90;24.93;;;15.90;99.90;;;;;;4959122;28;20494;-87
2023/05/08 02:35:49;;;;;;;76.60;23.80;;;15.90;99.90;;;;;;4976779;28;20534;-87
2023/05/08 02:38:18;;;;;;;77.87;26.93;;;16.00;99.90;;;;;;4959480;28;20417;-88
2023/05/08 02:40:48;;;;;;;75.57;27.13;;;16.00;99.90;;;;;;4976768;28;20408;-88
2023/05/08 02:43:14;;;;;;;75.47;25.97;;;16.00;99.90;;;;;;4959981;28;20798;-88
2023/05/08 02:45:53;;;;;;;77.33;23.30;;;15.90;99.90;;;;;;4976516;28;20420;-87
2023/05/08 02:48:32;;;;;;;75.47;23.63;;;15.90;99.90;;;;;;4976684;28;20814;-87
2023/05/08 02:51:10;;;;;;;76.90;28.00;;;15.90;99.90;;;;;;4976824;28;20382;-87
2023/05/08 02:53:49;;;;;;;77.87;28.80;;;15.90;99.90;;;;;;4977125;28;20790;-88
2023/05/08 02:56:29;;;;;;;75.67;26.47;;;15.70;99.90;;;;;;4976977;28;20420;-87
2023/05/08 02:59:05;;;;;;;75.97;27.83;;;15.70;99.90;;;;;;4977237;28;20396;-87
2023/05/08 03:01:55;;;;;;;75.50;23.90;;;15.80;99.90;;;;;;4976561;28;20381;-88
2023/05/08 03:04:33;;;;;;;76.50;27.90;;;15.80;99.90;;;;;;4946188;28;20478;-87
2023/05/08 03:07:01;;;;;;;77.57;28.43;;;15.80;99.90;;;;;;4959224;28;20440;-87
2023/05/08 03:09:35;;;;;;;78.53;26.30;;;15.70;99.90;;;;;;4959079;28;20442;-87
2023/05/08 03:12:08;;;;;;;77.37;28.77;;;15.70;99.90;;;;;;4976097;28;20486;-88
2023/05/08 03:14:41;;;;;;;76.00;25.60;;;15.70;99.90;;;;;;4976715;28;20388;-88
2023/05/08 03:17:09;;;;;;;83.17;26.87;;;15.70;99.90;;;;;;4959120;28;20428;-87
2023/05/08 03:19:37;;;;;;;78.87;27.47;;;15.70;99.90;;;;;;4958568;28;20488;-87
2023/05/08 03:22:05;;;;;;;77.87;27.00;;;15.70;99.90;;;;;;5046697;23;20493;-82
2023/05/08 03:24:33;;;;;;;77.63;26.70;;;15.70;99.90;;;;;;4978050;28;20488;-82
2023/05/08 03:27:02;;;;;;;76.27;24.70;;;15.70;99.90;;;;;;4978073;28;20425;-80
2023/05/08 03:29:28;;;;;;;78.67;28.47;;;15.70;99.90;;;;;;4961381;28;20494;-79
2023/05/08 03:31:56;;;;;;;77.63;27.47;;;15.60;99.90;;;;;;4978474;28;20415;-79
2023/05/08 03:34:23;;;;;;;76.37;27.63;;;15.60;99.90;;;;;;4978734;28;20462;-79
2023/05/08 03:36:50;;;;;;;77.87;27.07;;;15.60;99.90;;;;;;4962029;28;20437;-79
2023/05/08 03:39:16;;;;;;;77.77;28.70;;;15.60;99.90;;;;;;4978926;28;20418;-79
2023/05/08 03:41:46;;;;;;;77.93;28.50;;;15.50;99.90;;;;;;4960757;28;20425;-82
2023/05/08 03:44:25;;;;;;;78.37;28.47;;;15.60;99.90;;;;;;4978151;28;20818;-81
2023/05/08 03:47:04;;;;;;;;;;;;;;;;;;;;;
2023/05/08 03:49:33;;;;;;;76.73;25.50;;;15.50;99.90;;;;;;4977371;28;20405;-81
2023/05/08 03:52:00;;;;;;;78.40;27.87;;;15.50;99.90;;;;;;4977531;28;20488;-82
2023/05/08 03:54:27;;;;;;;78.53;30.33;;;15.50;99.90;;;;;;4959958;28;20446;-82
2023/05/08 03:59:29;;;;;;;77.27;28.07;;;15.50;99.90;;;;;;4956947;29;20469;-81
2023/05/08 04:02:08;;;;;;;78.13;30.63;;;15.50;99.90;;;;;;4957582;29;20386;-81
2023/05/08 04:04:42;;;;;;;80.37;30.17;;;15.50;99.90;;;;;;4957937;29;20492;-82
2023/05/08 04:07:35;;;;;;;79.20;28.10;;;15.50;99.90;;;;;;4957966;28;20428;-82
2023/05/08 04:10:07;;;;;;;78.20;28.27;;;15.50;99.90;;;;;;4957857;29;20393;-82
2023/05/08 04:13:04;;;;;;;78.77;29.43;;;15.50;99.90;;;;;;4957435;29;20402;-82
2023/05/08 04:15:33;;;;;;;77.00;25.77;;;15.50;99.90;;;;;;4939548;28;20452;-82
2023/05/08 04:18:23;;;;;;;79.63;30.03;;;15.50;99.90;;;;;;4957422;29;20485;-82
2023/05/08 04:20:53;;;;;;;77.37;25.50;;;15.50;99.90;;;;;;4957556;29;20407;-81
2023/05/08 04:23:20;;;;;;;79.67;31.63;;;15.40;99.90;;;;;;4957155;29;20492;-82
2023/05/08 04:25:51;;;;;;;79.77;31.73;;;15.40;99.90;;;;;;4957403;28;20777;-82
2023/05/08 04:28:19;;;;;;;80.53;35.43;;;15.50;99.90;;;;;;4958279;29;20472;-82
2023/05/08 04:30:45;;;;;;;80.60;33.67;;;15.50;99.90;;;;;;4959118;29;20405;-82
2023/05/08 04:33:12;;;;;;;81.57;36.17;;;15.50;99.90;;;;;;4959197;29;20500;-82
2023/05/08 04:35:38;;;;;;;82.07;31.77;;;15.50;99.90;;;;;;4959044;28;20433;-82
2023/05/08 04:38:04;;;;;;;81.70;33.77;;;15.40;99.90;;;;;;4958882;29;20405;-82
2023/05/08 04:40:32;;;;;;;84.77;36.17;;;15.40;99.90;;;;;;4959171;28;20174;-82
2023/05/08 04:42:58;;;;;;;81.37;36.67;;;15.40;99.90;;;;;;4941187;29;20263;-82
2023/05/08 04:45:23;;;;;;;81.60;36.23;;;15.40;99.90;;;;;;4958877;28;20923;-82
2023/05/08 04:47:49;;;;;;;83.93;32.73;;;15.30;99.90;;;;;;4958907;29;20581;-82
2023/05/08 04:50:15;;;;;;;81.07;31.87;;;15.40;99.90;;;;;;4959061;29;20220;-82
2023/05/08 04:52:41;;;;;;;82.90;34.63;;;15.30;99.90;;;;;;4958905;29;20215;-82
2023/05/08 04:55:07;;;;;;;85.37;36.83;;;15.30;99.90;;;;;;4941249;29;20169;-82
2023/05/08 04:57:33;;;;;;;82.50;34.80;;;15.20;99.90;;;;;;4959114;28;20449;-82
2023/05/08 04:59:59;;;;;;;82.60;39.13;;;15.30;99.90;;;;;;4941194;29;20425;-82
2023/05/08 05:02:25;;;;;;;85.00;42.03;;;15.30;99.90;;;;;;4958383;29;20235;-82
2023/05/08 05:04:51;;;;;;;85.20;40.73;;;15.40;99.90;;;;;;4941996;29;20197;-82
2023/05/08 05:07:17;;;;;;;81.47;35.17;;;15.40;99.90;;;;;;4958772;28;20505;-82
2023/05/08 05:09:42;;;;;;;85.50;38.97;;;15.40;99.90;;;;;;4941233;29;20249;-82
2023/05/08 05:12:08;;;;;;;84.47;35.27;;;15.40;99.90;;;;;;4958500;29;20166;-82
2023/05/08 05:14:34;;;;;;;81.17;32.67;;;15.40;99.90;;;;;;4958631;29;20187;-82
2023/05/08 05:17:00;;;;;;;82.97;37.67;;;15.40;99.90;;;;;;4958521;28;20199;-82
2023/05/08 05:19:26;;;;;;;84.43;36.13;;;15.40;99.90;;;;;;4958629;29;20242;-82
2023/05/08 05:21:51;;;;;;;85.13;37.77;;;15.50;99.90;;;;;;4958290;29;20521;-82
2023/05/08 05:24:17;;;;;;;83.37;33.27;;;15.50;99.90;;;;;;4957889;29;20405;-82
2023/05/08 05:26:43;;;;;;;84.30;34.20;;;15.60;99.90;;;;;;4940850;29;20191;-82
2023/05/08 05:29:08;;;;;;;84.60;35.17;;;15.50;99.90;;;;;;4958734;29;20211;-82
2023/05/08 05:31:37;;;;;;;84.30;32.67;;;15.50;99.90;;;;;;4940851;29;20224;-82
2023/05/08 05:34:03;;;;;;;85.23;30.50;;;15.50;99.90;;;;;;4940676;29;20194;-82
2023/05/08 05:36:29;;;;;;;82.83;36.20;;;15.50;99.90;;;;;;4940735;29;20536;-82
2023/05/08 05:38:55;;;;;;;82.67;37.47;;;15.50;99.90;;;;;;4958185;29;20416;-82
2023/05/08 05:41:21;;;;;;;84.83;36.13;;;15.60;99.90;;;;;;4957996;29;20398;-82
2023/05/08 05:43:46;;;;;;;82.17;30.87;;;15.60;99.90;;;;;;4958575;29;20607;-82
2023/05/08 05:46:12;;;;;;;84.70;35.77;;;15.70;99.90;;;;;;4957970;28;20477;-82
2023/05/08 05:48:51;;;;;;;81.47;33.10;;;15.70;99.90;;;;;;4958016;29;20515;-82
2023/05/08 05:51:16;;;;;;;82.30;31.50;;;15.80;99.90;;;;;;4959692;28;20148;-82
2023/05/08 05:53:55;;;;;;;82.47;30.20;;;15.80;99.90;;;;;;4960778;29;20468;-82
2023/05/08 05:56:22;;;;;;;80.27;30.47;;;15.90;99.90;;;;;;4961174;28;20201;-82
2023/05/08 05:58:47;;;;;;;82.87;29.70;;;15.90;99.90;;;;;;4960517;29;20429;-82
2023/05/08 06:01:14;;;;;;;81.63;26.13;;;15.80;99.90;;;;;;4960824;29;20417;-82
2023/05/08 06:03:39;;;;;;;83.27;29.80;;;15.80;99.90;;;;;;4942685;29;20178;-82
2023/05/08 06:06:05;;;;;;;80.10;27.10;;;15.80;99.90;;;;;;4960894;28;21060;-82
2023/05/08 06:08:31;;;;;;;80.80;29.17;;;15.80;99.90;;;;;;4960451;29;20177;-82
2023/05/08 06:10:57;;;;;;;79.73;27.47;;;15.80;99.90;;;;;;4960837;29;20424;-82
2023/05/08 06:13:23;;;;;;;81.43;28.50;;;15.80;99.90;;;;;;4942910;29;20258;-82
2023/05/08 06:15:55;;;;;;;82.10;29.73;;;15.80;99.90;;;;;;4960040;28;20959;-82
2023/05/08 06:18:21;;;;;;;80.60;28.40;;;15.90;99.90;;;;;;4942714;29;20595;-82
2023/05/08 06:20:47;;;;;;;82.47;28.73;;;15.90;99.90;;;;;;4959960;29;20508;-82
2023/05/08 06:23:13;;;;;;;80.17;28.70;;;16.00;99.90;;;;;;4960207;29;20439;-82
2023/05/08 06:25:39;;;;;;;84.00;29.93;;;16.00;99.90;;;;;;4942438;28;20779;-82
2023/05/08 06:28:06;;;;;;;82.73;33.30;;;16.10;99.90;;;;;;4960158;29;20459;-82
2023/05/08 06:30:36;;;;;;;91.47;31.20;;;16.20;99.90;;;;;;4959732;29;20465;-82
2023/05/08 06:33:01;;;;;;;81.67;30.70;;;16.30;99.90;;;;;;4960123;29;20470;-82
2023/05/08 06:35:27;;;;;;;83.57;31.47;;;16.30;99.90;;;;;;4959732;28;20411;-82
2023/05/08 06:37:53;;;;;;;82.10;30.13;;;16.30;99.90;;;;;;4959602;29;20410;-82
2023/05/08 06:40:19;;;;;;;80.27;27.50;;;16.20;99.90;;;;;;4959446;29;20171;-82
2023/05/08 06:42:45;;;;;;;81.57;30.47;;;16.30;99.90;;;;;;4959418;29;20179;-82
2023/05/08 06:45:11;;;;;;;80.67;29.80;;;16.30;99.90;;;;;;4959964;29;20460;-82
2023/05/08 06:47:40;;;;;;;83.60;26.87;;;16.30;99.90;;;;;;4959647;28;20527;-82
2023/05/08 06:50:06;;;;;;;81.30;29.17;;;16.40;99.90;;;;;;4942564;29;20423;-82
2023/05/08 06:52:31;;;;;;;80.00;25.10;;;16.40;99.90;;;;;;4959337;29;20884;-82
2023/05/08 06:54:57;;;;;;;79.07;23.90;;;16.40;99.90;;;;;;4958952;29;20419;-82
2023/05/08 06:57:25;;;;;;;88.93;33.80;;;16.40;99.90;;;;;;4959055;28;20868;-82
2023/05/08 06:59:52;;;;;;;78.97;22.07;;;16.30;99.90;;;;;;4942165;29;20598;-82
2023/05/08 07:02:21;;;;;;;76.77;17.83;;;16.30;99.90;;;;;;4958063;28;20470;-82
2023/05/08 07:04:47;;;;;;;77.37;19.43;;;16.40;99.90;;;;;;4942873;29;20444;-82
2023/05/08 07:07:14;;;;;;;78.50;19.67;;;16.40;99.90;;;;;;4941210;29;20438;-82
2023/05/08 07:09:42;;;;;;;77.50;17.27;;;16.50;99.90;;;;;;4958543;29;20653;-82
2023/05/08 07:12:08;;;;;;;76.20;15.93;;;16.50;99.90;;;;;;4941920;29;20780;-82
2023/05/08 07:14:34;;;;;;;79.47;13.40;;;16.50;99.90;;;;;;4942404;29;20475;-82
2023/05/08 07:17:06;;;;;;;75.60;13.83;;;16.50;99.90;;;;;;4959261;28;20562;-82
2023/05/08 07:19:36;;;;;;;73.47;12.20;;;16.50;99.90;;;;;;4959151;29;20799;-82
2023/05/08 07:22:03;;;;;;;74.57;12.30;;;16.60;99.90;;;;;;4941839;29;20396;-82
2023/05/08 07:24:29;;;;;;;76.30;12.90;;;16.70;99.90;;;;;;4959123;29;20925;-82
2023/05/08 07:26:55;;;;;;;75.37;13.43;;;16.70;99.90;;;;;;4959438;28;20438;-82
2023/05/08 07:29:20;;;;;;;78.57;13.57;;;16.80;99.90;;;;;;4942812;29;20416;-82
2023/05/08 07:36:51;;;;;;;77.37;14.27;;;16.60;99.90;;;;;;4958862;28;21006;-80
2023/05/08 07:39:17;;;;;;;78.73;12.90;;;16.60;99.90;;;;;;4960826;29;20392;-81
2023/05/08 07:41:42;;;;;;;73.77;12.07;;;16.70;99.90;;;;;;4961189;29;20163;-81
2023/05/08 07:44:08;;;;;;;73.03;11.90;;;16.80;99.90;;;;;;4960044;29;20164;-81
2023/05/08 07:46:34;;;;;;;75.47;12.80;;;16.80;99.90;;;;;;4943204;29;20190;-81
2023/05/08 07:49:00;;;;;;;75.67;13.03;;;16.90;99.90;;;;;;4960450;29;20175;-81
2023/05/08 07:51:26;;;;;;;74.97;12.20;;;17.00;99.90;;;;;;4943156;29;20231;-81
2023/05/08 07:53:53;;;;;;;75.47;12.60;;;16.90;99.90;;;;;;4960290;29;20461;-80
2023/05/08 07:56:22;;;;;;;75.27;12.27;;;16.90;99.90;;;;;;4959660;28;20957;-81
2023/05/08 07:58:50;;;;;;;77.40;12.90;;;17.10;99.90;;;;;;4942989;29;20416;-81
2023/05/08 08:01:16;;;;;;;75.17;12.03;;;17.30;99.90;;;;;;4943722;29;20415;-80
2023/05/08 08:06:38;;;;;;;76.27;13.83;;;17.50;99.90;;;;;;4959489;28;20427;-80
2023/05/08 08:09:03;;;;;;;76.40;13.17;;;17.50;99.90;;;;;;4959093;29;20482;-80
2023/05/08 08:11:35;;;;;;;79.57;14.50;;;17.40;99.90;;;;;;4942017;29;20440;-80
2023/05/08 08:14:01;;;;;;;76.30;13.00;;;17.30;99.90;;;;;;4959615;28;20274;-80
2023/05/08 08:16:27;;;;;;;76.50;13.20;;;17.30;99.90;;;;;;4959769;28;20466;-80
2023/05/08 08:18:58;;;;;;;76.10;13.43;;;17.50;99.90;;;;;;4959555;29;20821;-80
2023/05/08 08:21:24;;;;;;;76.13;13.60;;;17.60;99.90;;;;;;4942289;29;20164;-80
2023/05/08 08:23:58;;;;;;;78.97;14.60;;;17.60;99.90;;;;;;4959112;29;20839;-80
2023/05/08 08:26:24;;;;;;;75.40;13.33;;;17.60;99.90;;;;;;4942347;29;20218;-80
2023/05/08 08:28:53;;;;;;;73.90;13.57;;;17.80;99.90;;;;;;4959403;29;20403;-80
2023/05/08 08:31:18;;;;;;;78.37;14.80;;;17.70;99.90;;;;;;4941904;29;20172;-80
2023/05/08 08:33:47;;;;;;;76.43;14.10;;;17.80;99.90;;;;;;4942195;29;21036;-81
2023/05/08 08:36:14;;;;;;;77.93;14.07;;;17.70;99.90;;;;;;4959599;28;20443;-80
2023/05/08 08:38:41;;;;;;;76.30;14.57;;;17.70;99.90;;;;;;4960137;29;20404;-80
2023/05/08 08:41:07;;;;;;;74.10;13.40;;;17.80;99.90;;;;;;4941748;29;20419;-80
2023/05/08 08:43:33;;;;;;;77.37;15.83;;;17.80;99.90;;;;;;4942490;29;20511;-80
2023/05/08 08:46:09;;;;;;;79.27;16.20;;;17.80;99.90;;;;;;4959164;28;20498;-80
2023/05/08 08:48:37;;;;;;;76.30;16.13;;;17.80;99.90;;;;;;4958784;29;20898;-80
2023/05/08 08:51:08;;;;;;;76.33;15.50;;;17.90;99.90;;;;;;4958476;29;20416;-80
2023/05/08 08:53:41;;;;;;;78.30;16.50;;;17.80;99.90;;;;;;4941744;29;20530;-80
2023/05/08 08:56:08;;;;;;;78.47;15.20;;;18.00;99.90;;;;;;4959004;28;20447;-80
2023/05/08 08:58:55;;;;;;;78.30;17.00;;;18.10;99.90;;;;;;4940885;29;20422;-82
2023/05/08 09:01:22;;;;;;;74.53;15.10;;;18.10;99.90;;;;;;4940529;29;20551;-80
2023/05/08 09:03:52;;;;;;;75.90;16.17;;;18.00;99.90;;;;;;4957484;29;20435;-80
2023/05/08 09:06:18;;;;;;;75.23;15.67;;;18.00;99.90;;;;;;4957889;28;20427;-80
2023/05/08 09:08:47;;;;;;;74.73;16.50;;;18.10;99.90;;;;;;4958137;29;20439;-80
2023/05/08 09:11:19;;;;;;;75.70;16.13;;;18.00;99.90;;;;;;4957409;29;20488;-80
2023/05/08 09:13:51;;;;;;;81.20;17.67;;;17.80;99.90;;;;;;4939785;29;20455;-82
2023/05/08 09:16:17;;;;;;;77.93;16.97;;;18.00;99.90;;;;;;4957377;28;20474;-80
2023/05/08 09:18:46;;;;;;;77.07;16.50;;;18.00;99.90;;;;;;4940734;29;20923;-80
2023/05/08 09:21:12;;;;;;;77.30;16.50;;;17.80;99.90;;;;;;4960751;23;20490;-88
2023/05/08 09:24:06;;;;;;;75.87;15.10;;;17.90;99.90;;;;;;4975308;28;20414;-88
2023/05/08 09:26:36;;;;;;;82.53;16.30;;;18.00;99.90;;;;;;4977180;28;20470;-87
2023/05/08 09:29:12;;;;;;;76.07;16.73;;;17.90;99.90;;;;;;4962114;28;20407;-88
2023/05/08 09:31:47;;;;;;;75.83;17.00;;;17.90;99.90;;;;;;4961640;28;20428;-87
2023/05/08 09:34:36;;;;;;;77.60;17.60;;;17.80;99.90;;;;;;4961845;28;20565;-87
2023/05/08 09:37:07;;;;;;;80.50;18.30;;;17.60;99.90;;;;;;4979585;28;20426;-87
2023/05/08 09:39:42;;;;;;;78.73;17.43;;;17.50;99.90;;;;;;4960954;28;20410;-87
2023/05/08 09:42:17;;;;;;;78.30;17.40;;;17.50;99.90;;;;;;4962125;28;20433;-88
2023/05/08 09:44:51;;;;;;;75.90;16.53;;;17.50;99.90;;;;;;4961708;28;20414;-87
2023/05/08 09:47:20;;;;;;;77.23;17.00;;;17.40;99.90;;;;;;4960962;28;20433;-87
2023/05/08 09:50:11;;;;;;;76.20;16.20;;;17.50;99.90;;;;;;4960929;28;20422;-88
2023/05/08 09:52:44;;;;;;;76.90;17.40;;;17.60;99.90;;;;;;4970469;28;20468;-87
2023/05/08 09:55:10;;;;;;;78.20;17.57;;;17.70;99.90;;;;;;4978327;28;20403;-87
2023/05/08 09:57:50;;;;;;;76.47;16.60;;;17.70;99.90;;;;;;4978123;28;20937;-87
2023/05/08 10:00:17;;;;;;;76.97;17.00;;;17.70;99.90;;;;;;4961363;28;20167;-88
2023/05/08 10:03:02;;;;;;;79.20;19.00;;;17.50;99.90;;;;;;4961191;28;20898;-87
2023/05/08 10:05:36;;;;;;;79.30;17.43;;;17.40;99.90;;;;;;4977954;28;20434;-88
2023/05/08 10:08:25;;;;;;;77.97;16.83;;;17.40;99.90;;;;;;4978004;28;20462;-87
2023/05/08 10:10:53;;;;;;;76.83;16.03;;;17.40;99.90;;;;;;4978603;28;20372;-88
2023/05/08 10:13:20;;;;;;;76.80;16.00;;;17.40;99.90;;;;;;4960421;28;20442;-88
2023/05/08 10:15:55;;;;;;;76.97;16.93;;;17.40;99.90;;;;;;4978064;28;20442;-88
2023/05/08 10:18:26;;;;;;;75.07;16.53;;;17.40;99.90;;;;;;4960985;28;20422;-88
2023/05/08 10:20:54;;;;;;;80.10;16.90;;;17.40;99.90;;;;;;4960188;28;20798;-88
2023/05/08 10:23:21;;;;;;;76.07;16.80;;;17.50;99.90;;;;;;4978417;28;20866;-88
2023/05/08 10:25:55;;;;;;;79.10;15.27;;;17.40;99.90;;;;;;4960657;28;20438;-88
2023/05/08 10:28:49;;;;;;;78.30;13.53;;;17.20;99.90;;;;;;4961593;28;20410;-87
2023/05/08 10:31:19;;;;;;;75.40;14.20;;;17.10;99.90;;;;;;4961622;28;20415;-87
2023/05/08 10:33:50;;;;;;;74.83;13.20;;;17.20;99.90;;;;;;4962178;28;20461;-88
2023/05/08 10:36:28;;;;;;;78.70;15.37;;;17.30;99.90;;;;;;4979346;28;20425;-87
2023/05/08 10:39:04;;;;;;;75.60;12.63;;;17.40;99.90;;;;;;4960771;28;20762;-88
2023/05/08 10:41:36;;;;;;;76.20;13.53;;;17.40;99.90;;;;;;4959447;28;20453;-87
2023/05/08 10:44:03;;;;;;;79.63;14.50;;;17.40;99.90;;;;;;4960113;28;20406;-87
2023/05/08 10:46:31;;;;;;;75.00;12.93;;;17.50;99.90;;;;;;4976938;28;20431;-88
2023/05/08 10:49:44;;;;;;;75.77;14.10;;;17.50;99.90;;;;;;4961101;28;20784;-87
2023/05/08 10:52:13;;;;;;;75.43;13.20;;;17.50;99.90;;;;;;4941296;28;20411;-88
2023/05/08 10:55:04;;;;;;;77.20;15.60;;;17.60;99.90;;;;;;4961120;28;20447;-87
2023/05/08 10:58:12;;;;;;;76.57;13.93;;;17.60;99.90;;;;;;4976536;28;20488;-88
2023/05/08 11:01:11;;;;;;;77.77;14.57;;;17.60;99.90;;;;;;4960077;28;20770;-87
2023/05/08 11:03:41;;;;;;;77.87;17.07;;;17.70;99.90;;;;;;4961630;28;20502;-88
2023/05/08 11:06:13;;;;;;;80.13;18.70;;;17.70;99.90;;;;;;4978239;28;20422;-88
2023/05/08 11:08:52;;;;;;;77.20;17.40;;;17.70;99.90;;;;;;4960288;28;20399;-88
2023/05/08 11:11:44;;;;;;;76.10;17.47;;;17.80;99.90;;;;;;4960253;28;20418;-88
2023/05/08 11:14:16;;;;;;;75.50;17.00;;;17.80;99.90;;;;;;4961703;28;20485;-87
2023/05/08 11:16:58;;;;;;;77.00;18.07;;;17.80;99.90;;;;;;4960096;28;20802;-87
2023/05/08 11:19:25;;;;;;;77.27;16.80;;;17.80;99.90;;;;;;4960875;28;20434;-88
2023/05/08 11:22:09;;;;;;;78.30;17.00;;;17.70;99.90;;;;;;4961102;28;20430;-88
2023/05/08 11:24:58;;;;;;;77.60;17.13;;;17.80;99.90;;;;;;4960632;28;20461;-87
2023/05/08 11:27:39;;;;;;;77.30;17.20;;;17.80;99.90;;;;;;4977749;28;20434;-88
2023/05/08 11:30:38;;;;;;;77.27;17.20;;;18.00;99.90;;;;;;4960082;28;20437;-87
2023/05/08 11:33:07;;;;;;;77.00;18.60;;;18.00;99.90;;;;;;4978807;28;20442;-89
2023/05/08 11:35:57;;;;;;;75.87;16.07;;;17.90;99.90;;;;;;4960440;28;20450;-88
2023/05/08 11:38:45;;;;;;;75.90;15.83;;;18.10;99.90;;;;;;4961583;28;20401;-87
2023/05/08 11:41:27;;;;;;;76.23;18.43;;;18.20;99.90;;;;;;4961614;28;20418;-87
2023/05/08 11:44:14;;;;;;;78.90;19.87;;;18.20;99.90;;;;;;4961288;28;20407;-88
2023/05/08 11:46:52;;;;;;;78.83;18.03;;;18.40;99.90;;;;;;4962454;28;20949;-88
2023/05/08 11:49:28;;;;;;;75.70;14.77;;;18.80;99.90;;;;;;4962298;28;20462;-87
2023/05/08 11:51:58;;;;;;;74.90;15.03;;;18.90;99.90;;;;;;4963457;28;20809;-87
2023/05/08 11:54:28;;;;;;;77.13;14.17;;;18.70;99.90;;;;;;4979468;28;20577;-89
2023/05/08 11:56:54;;;;;;;76.87;14.10;;;18.80;99.90;;;;;;4961751;28;21044;-88
2023/05/08 11:59:20;;;;;;;76.57;16.90;;;19.00;99.90;;;;;;4978305;28;20435;-88
2023/05/08 12:01:50;;;;;;;77.13;10.83;;;19.00;99.90;;;;;;4961329;28;20194;-87
2023/05/08 12:04:19;;;;;;;72.37;10.07;;;19.30;99.90;;;;;;4978487;28;20403;-87
2023/05/08 12:06:59;;;;;;;76.63;9.83;;;19.50;99.90;;;;;;4961575;28;20458;-87
2023/05/08 12:09:25;;;;;;;77.77;11.23;;;19.70;99.90;;;;;;4963396;28;20898;-87
2023/05/08 12:11:56;;;;;;;74.60;9.60;;;19.80;99.90;;;;;;4961211;28;20415;-87
2023/05/08 12:14:25;;;;;;;74.27;10.27;;;19.70;99.90;;;;;;4961054;28;20446;-87
2023/05/08 12:16:51;;;;;;;72.30;10.07;;;19.70;99.90;;;;;;4962116;28;20927;-87
2023/05/08 12:19:17;;;;;;;71.30;8.80;;;19.80;99.90;;;;;;4979889;28;20482;-87
2023/05/08 12:21:50;;;;;;;70.70;9.60;;;19.70;99.90;;;;;;4961094;28;20187;-87
2023/05/08 12:24:22;;;;;;;72.23;10.03;;;19.60;99.90;;;;;;4980557;28;20887;-88
2023/05/08 12:26:48;;;;;;;69.80;8.50;;;19.60;99.90;;;;;;4979438;28;20437;-87
2023/05/08 12:29:21;;;;;;;72.70;9.67;;;19.30;99.90;;;;;;4960848;28;20426;-87
2023/05/08 12:31:47;;;;;;;69.73;9.27;;;19.20;99.90;;;;;;4978690;28;20830;-88
2023/05/08 12:34:16;;;;;;;72.60;11.07;;;19.20;99.90;;;;;;4961620;28;20442;-87
2023/05/08 12:36:50;;;;;;;68.93;8.73;;;19.10;99.90;;;;;;4961781;28;20433;-88
2023/05/08 12:39:18;;;;;;;72.70;10.37;;;18.90;99.90;;;;;;4962384;28;20419;-88
2023/05/08 12:41:53;;;;;;;70.67;8.50;;;18.90;99.90;;;;;;4960475;28;20407;-88
2023/05/08 12:44:23;;;;;;;71.23;9.10;;;18.90;99.90;;;;;;4979414;28;20492;-88
2023/05/08 12:46:54;;;;;;;73.70;8.70;;;18.90;99.90;;;;;;4945932;28;20438;-88
2023/05/08 12:49:27;;;;;;;71.10;8.70;;;18.80;99.90;;;;;;4978215;28;20755;-87
2023/05/08 12:52:12;;;;;;;68.37;8.03;;;18.90;99.90;;;;;;4979088;28;20461;-87
2023/05/08 12:54:53;;;;;;;70.70;9.47;;;18.90;99.90;;;;;;4979774;28;20501;-88
2023/05/08 12:57:25;;;;;;;79.60;9.57;;;19.10;99.90;;;;;;4960790;28;20445;-88
2023/05/08 13:00:04;;;;;;;72.93;9.40;;;19.10;99.90;;;;;;4961510;28;20415;-87